sensor_id;sensor_type;location;lat;lon;timestamp;P1;durP1;ratioP1;P2;durP2;ratioP2
41946;SDS011;27638;42.184;24.848;2022-08-19T00:00:14;14.55;;;8.75;;
41946;SDS011;27638;42.184;24.848;2022-08-19T00:02:40;16.73;;;8.90;;
41946;SDS011;27638;42.184;24.848;2022-08-19T00:05:07;13.68;;;8.98;;
41946;SDS011;27638;42.184;24.848;2022-08-19T00:07:34;16.25;;;9.13;;
41946;SDS011;27638;42.184;24.848;2022-08-19T00:10:00;16.95;;;9.13;;
41946;SDS011;27638;42.184;24.848;2022-08-19T00:12:26;15.52;;;8.50;;
41946;SDS011;27638;42.184;24.848;2022-08-19T00:14:51;18.17;;;9.32;;
41946;SDS011;27638;42.184;24.848;2022-08-19T00:17:19;15.10;;;8.52;;
41946;SDS011;27638;42.184;24.848;2022-08-19T00:19:45;12.35;;;9.18;;
41946;SDS011;27638;42.184;24.848;2022-08-19T00:22:10;14.90;;;9.63;;
41946;SDS011;27638;42.184;24.848;2022-08-19T00:24:36;12.68;;;9.05;;
41946;SDS011;27638;42.184;24.848;2022-08-19T00:27:03;15.10;;;9.48;;
41946;SDS011;27638;42.184;24.848;2022-08-19T00:29:29;17.15;;;9.43;;
41946;SDS011;27638;42.184;24.848;2022-08-19T00:31:55;13.27;;;9.57;;
41946;SDS011;27638;42.184;24.848;2022-08-19T00:34:23;14.40;;;9.52;;
41946;SDS011;27638;42.184;24.848;2022-08-19T00:36:50;13.05;;;9.10;;
41946;SDS011;27638;42.184;24.848;2022-08-19T00:39:15;16.95;;;8.93;;
41946;SDS011;27638;42.184;24.848;2022-08-19T00:41:42;13.77;;;9.30;;
41946;SDS011;27638;42.184;24.848;2022-08-19T00:44:13;13.35;;;9.95;;
41946;SDS011;27638;42.184;24.848;2022-08-19T00:46:45;15.48;;;9.88;;
41946;SDS011;27638;42.184;24.848;2022-08-19T00:52:16;14.88;;;9.77;;
41946;SDS011;27638;42.184;24.848;2022-08-19T00:54:49;16.40;;;9.93;;
41946;SDS011;27638;42.184;24.848;2022-08-19T00:57:18;13.82;;;9.75;;
41946;SDS011;27638;42.184;24.848;2022-08-19T00:59:50;14.38;;;8.82;;
41946;SDS011;27638;42.184;24.848;2022-08-19T01:02:17;14.70;;;8.90;;
41946;SDS011;27638;42.184;24.848;2022-08-19T01:04:43;17.23;;;9.68;;
41946;SDS011;27638;42.184;24.848;2022-08-19T01:07:08;12.32;;;9.00;;
41946;SDS011;27638;42.184;24.848;2022-08-19T01:09:34;13.65;;;9.38;;
41946;SDS011;27638;42.184;24.848;2022-08-19T01:11:59;13.80;;;9.75;;
41946;SDS011;27638;42.184;24.848;2022-08-19T01:14:25;14.50;;;9.57;;
41946;SDS011;27638;42.184;24.848;2022-08-19T01:16:51;15.70;;;9.38;;
41946;SDS011;27638;42.184;24.848;2022-08-19T01:19:28;17.88;;;10.07;;
41946;SDS011;27638;42.184;24.848;2022-08-19T01:22:03;15.98;;;9.85;;
41946;SDS011;27638;42.184;24.848;2022-08-19T01:24:34;19.13;;;9.82;;
41946;SDS011;27638;42.184;24.848;2022-08-19T01:27:00;12.18;;;9.52;;
41946;SDS011;27638;42.184;24.848;2022-08-19T01:29:29;17.25;;;10.02;;
41946;SDS011;27638;42.184;24.848;2022-08-19T01:31:54;14.98;;;10.32;;
41946;SDS011;27638;42.184;24.848;2022-08-19T01:34:20;15.63;;;10.50;;
41946;SDS011;27638;42.184;24.848;2022-08-19T01:36:46;16.40;;;11.02;;
41946;SDS011;27638;42.184;24.848;2022-08-19T01:39:15;15.55;;;10.82;;
41946;SDS011;27638;42.184;24.848;2022-08-19T01:41:42;13.65;;;10.20;;
41946;SDS011;27638;42.184;24.848;2022-08-19T01:44:08;17.42;;;10.15;;
41946;SDS011;27638;42.184;24.848;2022-08-19T01:46:35;12.48;;;9.48;;
41946;SDS011;27638;42.184;24.848;2022-08-19T01:49:01;13.52;;;9.45;;
41946;SDS011;27638;42.184;24.848;2022-08-19T01:51:28;11.98;;;9.02;;
41946;SDS011;27638;42.184;24.848;2022-08-19T01:53:55;14.02;;;8.95;;
41946;SDS011;27638;42.184;24.848;2022-08-19T01:56:22;12.20;;;8.80;;
41946;SDS011;27638;42.184;24.848;2022-08-19T01:58:55;13.13;;;8.68;;
41946;SDS011;27638;42.184;24.848;2022-08-19T02:01:26;19.15;;;9.18;;
41946;SDS011;27638;42.184;24.848;2022-08-19T02:03:51;14.90;;;9.40;;
41946;SDS011;27638;42.184;24.848;2022-08-19T02:06:18;13.57;;;9.32;;
41946;SDS011;27638;42.184;24.848;2022-08-19T02:08:44;17.95;;;9.32;;
41946;SDS011;27638;42.184;24.848;2022-08-19T02:11:24;11.98;;;9.52;;
41946;SDS011;27638;42.184;24.848;2022-08-19T02:13:52;12.57;;;9.93;;
41946;SDS011;27638;42.184;24.848;2022-08-19T02:16:19;13.68;;;10.05;;
41946;SDS011;27638;42.184;24.848;2022-08-19T02:18:45;13.95;;;10.57;;
41946;SDS011;27638;42.184;24.848;2022-08-19T02:21:13;14.45;;;10.20;;
41946;SDS011;27638;42.184;24.848;2022-08-19T02:23:43;16.08;;;10.00;;
41946;SDS011;27638;42.184;24.848;2022-08-19T02:26:09;19.83;;;9.88;;
41946;SDS011;27638;42.184;24.848;2022-08-19T02:28:35;14.20;;;9.48;;
41946;SDS011;27638;42.184;24.848;2022-08-19T02:31:01;21.83;;;9.75;;
41946;SDS011;27638;42.184;24.848;2022-08-19T02:33:27;20.58;;;9.73;;
41946;SDS011;27638;42.184;24.848;2022-08-19T02:35:53;19.75;;;9.57;;
41946;SDS011;27638;42.184;24.848;2022-08-19T02:38:19;12.75;;;10.00;;
41946;SDS011;27638;42.184;24.848;2022-08-19T02:40:58;19.42;;;9.48;;
41946;SDS011;27638;42.184;24.848;2022-08-19T02:43:25;16.38;;;9.48;;
41946;SDS011;27638;42.184;24.848;2022-08-19T02:45:52;19.23;;;9.85;;
41946;SDS011;27638;42.184;24.848;2022-08-19T02:48:19;16.75;;;9.55;;
41946;SDS011;27638;42.184;24.848;2022-08-19T02:50:46;18.17;;;9.40;;
41946;SDS011;27638;42.184;24.848;2022-08-19T02:53:15;20.40;;;10.38;;
41946;SDS011;27638;42.184;24.848;2022-08-19T02:55:44;20.13;;;9.75;;
41946;SDS011;27638;42.184;24.848;2022-08-19T02:58:11;17.40;;;10.40;;
41946;SDS011;27638;42.184;24.848;2022-08-19T03:00:56;19.17;;;10.25;;
41946;SDS011;27638;42.184;24.848;2022-08-19T03:03:22;17.00;;;10.02;;
41946;SDS011;27638;42.184;24.848;2022-08-19T03:05:48;22.65;;;10.25;;
41946;SDS011;27638;42.184;24.848;2022-08-19T03:08:13;12.93;;;8.95;;
41946;SDS011;27638;42.184;24.848;2022-08-19T03:10:40;16.83;;;9.75;;
41946;SDS011;27638;42.184;24.848;2022-08-19T03:13:12;17.17;;;9.93;;
41946;SDS011;27638;42.184;24.848;2022-08-19T03:15:43;15.65;;;9.35;;
41946;SDS011;27638;42.184;24.848;2022-08-19T03:18:11;14.75;;;9.70;;
41946;SDS011;27638;42.184;24.848;2022-08-19T03:20:41;13.18;;;9.52;;
41946;SDS011;27638;42.184;24.848;2022-08-19T03:23:11;16.52;;;10.30;;
41946;SDS011;27638;42.184;24.848;2022-08-19T03:25:40;14.20;;;9.55;;
41946;SDS011;27638;42.184;24.848;2022-08-19T03:28:08;15.35;;;10.38;;
41946;SDS011;27638;42.184;24.848;2022-08-19T03:30:38;12.20;;;9.65;;
41946;SDS011;27638;42.184;24.848;2022-08-19T03:33:08;18.23;;;9.55;;
41946;SDS011;27638;42.184;24.848;2022-08-19T03:35:35;14.55;;;9.52;;
41946;SDS011;27638;42.184;24.848;2022-08-19T03:38:04;16.98;;;9.63;;
41946;SDS011;27638;42.184;24.848;2022-08-19T03:40:31;19.90;;;10.50;;
41946;SDS011;27638;42.184;24.848;2022-08-19T03:42:59;18.30;;;9.85;;
41946;SDS011;27638;42.184;24.848;2022-08-19T03:45:25;14.23;;;9.70;;
41946;SDS011;27638;42.184;24.848;2022-08-19T03:47:52;16.40;;;9.48;;
41946;SDS011;27638;42.184;24.848;2022-08-19T03:50:17;29.13;;;11.55;;
41946;SDS011;27638;42.184;24.848;2022-08-19T03:52:47;16.33;;;9.77;;
41946;SDS011;27638;42.184;24.848;2022-08-19T03:55:17;14.85;;;10.82;;
41946;SDS011;27638;42.184;24.848;2022-08-19T03:57:43;18.77;;;10.15;;
41946;SDS011;27638;42.184;24.848;2022-08-19T04:00:10;12.10;;;9.52;;
41946;SDS011;27638;42.184;24.848;2022-08-19T04:02:36;20.70;;;11.75;;
41946;SDS011;27638;42.184;24.848;2022-08-19T04:05:02;21.38;;;10.73;;
41946;SDS011;27638;42.184;24.848;2022-08-19T04:07:28;21.27;;;10.02;;
41946;SDS011;27638;42.184;24.848;2022-08-19T04:09:53;21.00;;;9.98;;
41946;SDS011;27638;42.184;24.848;2022-08-19T04:12:19;17.52;;;11.05;;
41946;SDS011;27638;42.184;24.848;2022-08-19T04:14:45;19.98;;;11.68;;
41946;SDS011;27638;42.184;24.848;2022-08-19T04:17:11;15.73;;;10.20;;
41946;SDS011;27638;42.184;24.848;2022-08-19T04:19:39;20.23;;;10.85;;
41946;SDS011;27638;42.184;24.848;2022-08-19T04:22:05;36.63;;;11.60;;
41946;SDS011;27638;42.184;24.848;2022-08-19T04:24:31;32.00;;;11.25;;
41946;SDS011;27638;42.184;24.848;2022-08-19T04:26:59;21.35;;;11.20;;
41946;SDS011;27638;42.184;24.848;2022-08-19T04:29:26;19.85;;;11.63;;
41946;SDS011;27638;42.184;24.848;2022-08-19T04:31:52;16.55;;;11.13;;
41946;SDS011;27638;42.184;24.848;2022-08-19T04:34:20;19.08;;;12.00;;
41946;SDS011;27638;42.184;24.848;2022-08-19T04:36:49;27.70;;;11.85;;
41946;SDS011;27638;42.184;24.848;2022-08-19T04:39:20;31.15;;;13.02;;
41946;SDS011;27638;42.184;24.848;2022-08-19T04:41:47;33.78;;;12.93;;
41946;SDS011;27638;42.184;24.848;2022-08-19T04:46:58;44.17;;;13.20;;
41946;SDS011;27638;42.184;24.848;2022-08-19T04:49:25;42.92;;;12.82;;
41946;SDS011;27638;42.184;24.848;2022-08-19T04:51:51;40.10;;;12.15;;
41946;SDS011;27638;42.184;24.848;2022-08-19T04:54:19;34.90;;;12.75;;
41946;SDS011;27638;42.184;24.848;2022-08-19T04:56:48;35.83;;;14.00;;
41946;SDS011;27638;42.184;24.848;2022-08-19T04:59:15;28.38;;;17.58;;
41946;SDS011;27638;42.184;24.848;2022-08-19T05:01:42;32.03;;;16.20;;
41946;SDS011;27638;42.184;24.848;2022-08-19T05:04:08;31.90;;;18.17;;
41946;SDS011;27638;42.184;24.848;2022-08-19T05:06:34;29.95;;;15.68;;
41946;SDS011;27638;42.184;24.848;2022-08-19T05:09:01;29.90;;;16.00;;
41946;SDS011;27638;42.184;24.848;2022-08-19T05:11:31;37.30;;;19.23;;
41946;SDS011;27638;42.184;24.848;2022-08-19T05:13:59;30.25;;;18.95;;
41946;SDS011;27638;42.184;24.848;2022-08-19T05:16:25;30.90;;;17.02;;
41946;SDS011;27638;42.184;24.848;2022-08-19T05:18:51;29.23;;;16.80;;
41946;SDS011;27638;42.184;24.848;2022-08-19T05:21:36;36.35;;;18.83;;
41946;SDS011;27638;42.184;24.848;2022-08-19T05:24:21;30.25;;;16.25;;
41946;SDS011;27638;42.184;24.848;2022-08-19T05:26:48;30.00;;;14.93;;
41946;SDS011;27638;42.184;24.848;2022-08-19T05:29:16;21.80;;;11.05;;
41946;SDS011;27638;42.184;24.848;2022-08-19T05:31:44;17.00;;;10.00;;
41946;SDS011;27638;42.184;24.848;2022-08-19T05:34:10;19.42;;;10.00;;
41946;SDS011;27638;42.184;24.848;2022-08-19T05:36:38;16.88;;;10.30;;
41946;SDS011;27638;42.184;24.848;2022-08-19T05:39:07;17.63;;;9.93;;
41946;SDS011;27638;42.184;24.848;2022-08-19T05:41:33;25.00;;;12.70;;
41946;SDS011;27638;42.184;24.848;2022-08-19T05:44:03;20.38;;;12.55;;
41946;SDS011;27638;42.184;24.848;2022-08-19T05:46:34;30.05;;;12.38;;
41946;SDS011;27638;42.184;24.848;2022-08-19T05:49:02;22.73;;;11.82;;
41946;SDS011;27638;42.184;24.848;2022-08-19T05:51:29;15.73;;;10.75;;
41946;SDS011;27638;42.184;24.848;2022-08-19T05:53:54;19.50;;;11.68;;
41946;SDS011;27638;42.184;24.848;2022-08-19T05:56:20;16.95;;;9.57;;
41946;SDS011;27638;42.184;24.848;2022-08-19T05:58:45;19.00;;;9.73;;
41946;SDS011;27638;42.184;24.848;2022-08-19T06:01:12;13.35;;;8.73;;
41946;SDS011;27638;42.184;24.848;2022-08-19T06:03:41;11.88;;;8.68;;
41946;SDS011;27638;42.184;24.848;2022-08-19T06:06:07;11.75;;;8.50;;
41946;SDS011;27638;42.184;24.848;2022-08-19T06:08:34;12.73;;;7.25;;
41946;SDS011;27638;42.184;24.848;2022-08-19T06:11:14;13.88;;;7.10;;
41946;SDS011;27638;42.184;24.848;2022-08-19T06:13:43;13.63;;;7.05;;
41946;SDS011;27638;42.184;24.848;2022-08-19T06:16:12;9.35;;;6.47;;
41946;SDS011;27638;42.184;24.848;2022-08-19T06:18:37;10.13;;;7.10;;
41946;SDS011;27638;42.184;24.848;2022-08-19T06:21:02;10.32;;;6.68;;
41946;SDS011;27638;42.184;24.848;2022-08-19T06:23:29;12.05;;;6.32;;
41946;SDS011;27638;42.184;24.848;2022-08-19T06:25:55;7.82;;;6.28;;
41946;SDS011;27638;42.184;24.848;2022-08-19T06:28:20;9.27;;;7.25;;
41946;SDS011;27638;42.184;24.848;2022-08-19T06:30:47;9.38;;;6.85;;
41946;SDS011;27638;42.184;24.848;2022-08-19T06:33:13;11.80;;;6.75;;
41946;SDS011;27638;42.184;24.848;2022-08-19T06:35:39;8.18;;;6.43;;
41946;SDS011;27638;42.184;24.848;2022-08-19T06:38:05;13.15;;;7.00;;
41946;SDS011;27638;42.184;24.848;2022-08-19T06:40:31;15.18;;;6.13;;
41946;SDS011;27638;42.184;24.848;2022-08-19T06:42:56;12.60;;;6.80;;
41946;SDS011;27638;42.184;24.848;2022-08-19T06:45:24;7.88;;;6.72;;
41946;SDS011;27638;42.184;24.848;2022-08-19T06:47:51;13.20;;;7.10;;
41946;SDS011;27638;42.184;24.848;2022-08-19T06:50:20;14.43;;;6.55;;
41946;SDS011;27638;42.184;24.848;2022-08-19T06:52:47;12.55;;;6.40;;
41946;SDS011;27638;42.184;24.848;2022-08-19T06:55:12;8.98;;;6.40;;
41946;SDS011;27638;42.184;24.848;2022-08-19T06:57:38;9.15;;;5.68;;
41946;SDS011;27638;42.184;24.848;2022-08-19T07:00:04;10.82;;;5.95;;
41946;SDS011;27638;42.184;24.848;2022-08-19T07:02:31;14.82;;;7.38;;
41946;SDS011;27638;42.184;24.848;2022-08-19T07:04:57;15.57;;;6.63;;
41946;SDS011;27638;42.184;24.848;2022-08-19T07:07:23;12.00;;;6.68;;
41946;SDS011;27638;42.184;24.848;2022-08-19T07:09:49;11.60;;;6.43;;
41946;SDS011;27638;42.184;24.848;2022-08-19T07:12:18;13.98;;;6.53;;
41946;SDS011;27638;42.184;24.848;2022-08-19T07:14:43;15.52;;;6.80;;
41946;SDS011;27638;42.184;24.848;2022-08-19T07:17:14;10.40;;;6.28;;
41946;SDS011;27638;42.184;24.848;2022-08-19T07:19:40;9.43;;;6.72;;
41946;SDS011;27638;42.184;24.848;2022-08-19T07:22:08;13.95;;;6.03;;
41946;SDS011;27638;42.184;24.848;2022-08-19T07:24:34;16.02;;;7.60;;
41946;SDS011;27638;42.184;24.848;2022-08-19T07:27:02;8.73;;;6.03;;
41946;SDS011;27638;42.184;24.848;2022-08-19T07:29:30;12.07;;;5.80;;
41946;SDS011;27638;42.184;24.848;2022-08-19T07:31:58;12.38;;;5.53;;
41946;SDS011;27638;42.184;24.848;2022-08-19T07:34:25;9.65;;;5.80;;
41946;SDS011;27638;42.184;24.848;2022-08-19T07:36:53;8.30;;;5.18;;
41946;SDS011;27638;42.184;24.848;2022-08-19T07:39:24;9.38;;;5.90;;
41946;SDS011;27638;42.184;24.848;2022-08-19T07:41:51;11.80;;;5.57;;
41946;SDS011;27638;42.184;24.848;2022-08-19T07:44:18;9.25;;;5.20;;
41946;SDS011;27638;42.184;24.848;2022-08-19T07:46:47;10.05;;;5.60;;
41946;SDS011;27638;42.184;24.848;2022-08-19T07:49:15;10.75;;;5.60;;
41946;SDS011;27638;42.184;24.848;2022-08-19T07:51:51;7.68;;;5.38;;
41946;SDS011;27638;42.184;24.848;2022-08-19T07:54:23;10.40;;;5.03;;
41946;SDS011;27638;42.184;24.848;2022-08-19T07:56:49;13.15;;;5.78;;
41946;SDS011;27638;42.184;24.848;2022-08-19T07:59:16;10.00;;;4.95;;
41946;SDS011;27638;42.184;24.848;2022-08-19T08:01:43;8.23;;;5.40;;
41946;SDS011;27638;42.184;24.848;2022-08-19T08:04:09;6.97;;;5.43;;
41946;SDS011;27638;42.184;24.848;2022-08-19T08:06:53;10.93;;;5.05;;
41946;SDS011;27638;42.184;24.848;2022-08-19T08:12:05;9.63;;;5.43;;
41946;SDS011;27638;42.184;24.848;2022-08-19T08:14:38;9.73;;;5.50;;
41946;SDS011;27638;42.184;24.848;2022-08-19T08:17:09;13.95;;;5.32;;
41946;SDS011;27638;42.184;24.848;2022-08-19T08:19:35;8.80;;;5.32;;
41946;SDS011;27638;42.184;24.848;2022-08-19T08:22:02;8.65;;;4.95;;
41946;SDS011;27638;42.184;24.848;2022-08-19T08:24:30;11.00;;;4.78;;
41946;SDS011;27638;42.184;24.848;2022-08-19T08:26:58;10.85;;;5.28;;
41946;SDS011;27638;42.184;24.848;2022-08-19T08:29:25;11.52;;;6.25;;
41946;SDS011;27638;42.184;24.848;2022-08-19T08:31:52;11.10;;;5.97;;
41946;SDS011;27638;42.184;24.848;2022-08-19T08:34:19;7.50;;;5.00;;
41946;SDS011;27638;42.184;24.848;2022-08-19T08:36:45;11.65;;;5.32;;
41946;SDS011;27638;42.184;24.848;2022-08-19T08:39:13;10.88;;;5.90;;
41946;SDS011;27638;42.184;24.848;2022-08-19T08:41:49;16.05;;;4.95;;
41946;SDS011;27638;42.184;24.848;2022-08-19T08:44:31;17.25;;;5.38;;
41946;SDS011;27638;42.184;24.848;2022-08-19T08:47:04;7.30;;;4.82;;
41946;SDS011;27638;42.184;24.848;2022-08-19T08:49:48;14.45;;;5.15;;
41946;SDS011;27638;42.184;24.848;2022-08-19T08:52:24;12.73;;;5.47;;
41946;SDS011;27638;42.184;24.848;2022-08-19T08:54:55;11.85;;;5.35;;
41946;SDS011;27638;42.184;24.848;2022-08-19T08:57:29;10.90;;;5.57;;
41946;SDS011;27638;42.184;24.848;2022-08-19T09:00:00;9.05;;;5.53;;
41946;SDS011;27638;42.184;24.848;2022-08-19T09:02:30;9.10;;;5.70;;
41946;SDS011;27638;42.184;24.848;2022-08-19T09:04:56;9.30;;;5.50;;
41946;SDS011;27638;42.184;24.848;2022-08-19T09:07:38;8.48;;;5.30;;
41946;SDS011;27638;42.184;24.848;2022-08-19T09:10:16;18.45;;;5.88;;
41946;SDS011;27638;42.184;24.848;2022-08-19T09:15:28;8.27;;;5.40;;
41946;SDS011;27638;42.184;24.848;2022-08-19T09:18:01;7.77;;;5.27;;
41946;SDS011;27638;42.184;24.848;2022-08-19T09:20:28;8.23;;;5.32;;
41946;SDS011;27638;42.184;24.848;2022-08-19T09:22:56;6.15;;;4.85;;
41946;SDS011;27638;42.184;24.848;2022-08-19T09:25:21;8.90;;;6.05;;
41946;SDS011;27638;42.184;24.848;2022-08-19T09:27:48;11.90;;;6.22;;
41946;SDS011;27638;42.184;24.848;2022-08-19T09:30:23;7.22;;;5.28;;
41946;SDS011;27638;42.184;24.848;2022-08-19T09:32:50;7.32;;;5.25;;
41946;SDS011;27638;42.184;24.848;2022-08-19T09:35:20;7.72;;;5.50;;
41946;SDS011;27638;42.184;24.848;2022-08-19T09:37:47;17.20;;;6.22;;
41946;SDS011;27638;42.184;24.848;2022-08-19T09:40:14;9.25;;;5.45;;
41946;SDS011;27638;42.184;24.848;2022-08-19T09:42:41;9.48;;;5.68;;
41946;SDS011;27638;42.184;24.848;2022-08-19T09:45:08;8.95;;;5.05;;
41946;SDS011;27638;42.184;24.848;2022-08-19T09:47:34;12.98;;;5.70;;
41946;SDS011;27638;42.184;24.848;2022-08-19T09:50:03;9.18;;;5.40;;
41946;SDS011;27638;42.184;24.848;2022-08-19T09:52:30;10.48;;;5.85;;
41946;SDS011;27638;42.184;24.848;2022-08-19T09:54:56;11.65;;;5.57;;
41946;SDS011;27638;42.184;24.848;2022-08-19T09:57:21;6.13;;;4.57;;
41946;SDS011;27638;42.184;24.848;2022-08-19T09:59:47;8.25;;;5.10;;
41946;SDS011;27638;42.184;24.848;2022-08-19T10:02:13;6.97;;;4.40;;
41946;SDS011;27638;42.184;24.848;2022-08-19T10:04:38;6.15;;;4.80;;
41946;SDS011;27638;42.184;24.848;2022-08-19T10:07:22;7.60;;;4.70;;
41946;SDS011;27638;42.184;24.848;2022-08-19T10:09:48;10.05;;;5.32;;
41946;SDS011;27638;42.184;24.848;2022-08-19T10:12:13;8.32;;;4.90;;
41946;SDS011;27638;42.184;24.848;2022-08-19T10:14:40;6.80;;;5.00;;
41946;SDS011;27638;42.184;24.848;2022-08-19T10:17:05;10.98;;;5.22;;
41946;SDS011;27638;42.184;24.848;2022-08-19T10:19:31;8.65;;;4.78;;
41946;SDS011;27638;42.184;24.848;2022-08-19T10:22:02;9.10;;;5.18;;
41946;SDS011;27638;42.184;24.848;2022-08-19T10:24:32;8.07;;;5.05;;
41946;SDS011;27638;42.184;24.848;2022-08-19T10:26:59;6.50;;;4.65;;
41946;SDS011;27638;42.184;24.848;2022-08-19T10:29:29;8.65;;;4.90;;
41946;SDS011;27638;42.184;24.848;2022-08-19T10:31:56;8.27;;;5.30;;
41946;SDS011;27638;42.184;24.848;2022-08-19T10:34:23;8.07;;;5.20;;
41946;SDS011;27638;42.184;24.848;2022-08-19T10:36:49;11.00;;;5.43;;
41946;SDS011;27638;42.184;24.848;2022-08-19T10:39:16;7.68;;;5.07;;
41946;SDS011;27638;42.184;24.848;2022-08-19T10:41:41;11.18;;;5.07;;
41946;SDS011;27638;42.184;24.848;2022-08-19T10:44:09;7.30;;;5.25;;
41946;SDS011;27638;42.184;24.848;2022-08-19T10:46:37;10.80;;;5.32;;
41946;SDS011;27638;42.184;24.848;2022-08-19T10:49:06;6.18;;;5.03;;
41946;SDS011;27638;42.184;24.848;2022-08-19T10:51:34;11.80;;;5.28;;
41946;SDS011;27638;42.184;24.848;2022-08-19T10:54:18;12.63;;;5.47;;
41946;SDS011;27638;42.184;24.848;2022-08-19T10:56:43;8.52;;;5.38;;
41946;SDS011;27638;42.184;24.848;2022-08-19T10:59:22;10.27;;;4.97;;
41946;SDS011;27638;42.184;24.848;2022-08-19T11:01:53;6.82;;;4.70;;
41946;SDS011;27638;42.184;24.848;2022-08-19T11:04:24;5.38;;;4.63;;
41946;SDS011;27638;42.184;24.848;2022-08-19T11:06:49;6.60;;;4.90;;
41946;SDS011;27638;42.184;24.848;2022-08-19T11:09:16;8.60;;;5.32;;
41946;SDS011;27638;42.184;24.848;2022-08-19T11:11:44;10.77;;;4.80;;
41946;SDS011;27638;42.184;24.848;2022-08-19T11:14:11;8.85;;;5.50;;
41946;SDS011;27638;42.184;24.848;2022-08-19T11:16:39;9.50;;;5.68;;
41946;SDS011;27638;42.184;24.848;2022-08-19T11:19:06;8.93;;;5.28;;
41946;SDS011;27638;42.184;24.848;2022-08-19T11:21:35;9.65;;;4.65;;
41946;SDS011;27638;42.184;24.848;2022-08-19T11:24:04;8.95;;;4.78;;
41946;SDS011;27638;42.184;24.848;2022-08-19T11:26:32;26.30;;;5.32;;
41946;SDS011;27638;42.184;24.848;2022-08-19T11:28:58;10.30;;;5.00;;
41946;SDS011;27638;42.184;24.848;2022-08-19T11:31:26;8.82;;;4.50;;
41946;SDS011;27638;42.184;24.848;2022-08-19T11:33:53;8.05;;;4.40;;
41946;SDS011;27638;42.184;24.848;2022-08-19T11:36:21;7.55;;;5.05;;
41946;SDS011;27638;42.184;24.848;2022-08-19T11:38:47;11.90;;;5.15;;
41946;SDS011;27638;42.184;24.848;2022-08-19T11:41:14;9.80;;;4.75;;
41946;SDS011;27638;42.184;24.848;2022-08-19T11:43:41;6.72;;;4.80;;
41946;SDS011;27638;42.184;24.848;2022-08-19T11:46:07;7.88;;;4.70;;
41946;SDS011;27638;42.184;24.848;2022-08-19T11:48:35;12.77;;;4.90;;
41946;SDS011;27638;42.184;24.848;2022-08-19T11:51:03;6.72;;;4.75;;
41946;SDS011;27638;42.184;24.848;2022-08-19T11:53:34;5.78;;;4.47;;
41946;SDS011;27638;42.184;24.848;2022-08-19T11:56:00;6.05;;;4.68;;
41946;SDS011;27638;42.184;24.848;2022-08-19T11:58:26;5.90;;;4.60;;
41946;SDS011;27638;42.184;24.848;2022-08-19T12:00:51;10.02;;;5.10;;
41946;SDS011;27638;42.184;24.848;2022-08-19T12:03:17;12.30;;;4.47;;
41946;SDS011;27638;42.184;24.848;2022-08-19T12:05:44;6.60;;;5.03;;
41946;SDS011;27638;42.184;24.848;2022-08-19T12:08:10;8.50;;;4.97;;
41946;SDS011;27638;42.184;24.848;2022-08-19T12:10:37;7.40;;;4.63;;
41946;SDS011;27638;42.184;24.848;2022-08-19T12:13:04;10.52;;;4.38;;
41946;SDS011;27638;42.184;24.848;2022-08-19T12:15:35;5.90;;;4.75;;
41946;SDS011;27638;42.184;24.848;2022-08-19T12:18:06;6.50;;;4.35;;
41946;SDS011;27638;42.184;24.848;2022-08-19T12:20:36;8.85;;;4.50;;
41946;SDS011;27638;42.184;24.848;2022-08-19T12:23:04;6.25;;;4.78;;
41946;SDS011;27638;42.184;24.848;2022-08-19T12:25:31;7.97;;;4.82;;
41946;SDS011;27638;42.184;24.848;2022-08-19T12:27:57;6.07;;;4.38;;
41946;SDS011;27638;42.184;24.848;2022-08-19T12:30:23;8.60;;;4.43;;
41946;SDS011;27638;42.184;24.848;2022-08-19T12:32:49;7.30;;;4.28;;
41946;SDS011;27638;42.184;24.848;2022-08-19T12:35:16;5.55;;;4.45;;
41946;SDS011;27638;42.184;24.848;2022-08-19T12:37:42;5.55;;;4.78;;
41946;SDS011;27638;42.184;24.848;2022-08-19T12:40:09;8.93;;;4.65;;
41946;SDS011;27638;42.184;24.848;2022-08-19T12:42:37;6.88;;;4.32;;
41946;SDS011;27638;42.184;24.848;2022-08-19T12:45:07;5.78;;;4.65;;
41946;SDS011;27638;42.184;24.848;2022-08-19T12:47:35;8.73;;;4.90;;
41946;SDS011;27638;42.184;24.848;2022-08-19T12:50:01;4.95;;;4.43;;
41946;SDS011;27638;42.184;24.848;2022-08-19T12:52:26;5.05;;;4.25;;
41946;SDS011;27638;42.184;24.848;2022-08-19T12:54:53;8.55;;;4.85;;
41946;SDS011;27638;42.184;24.848;2022-08-19T12:57:19;6.47;;;4.57;;
41946;SDS011;27638;42.184;24.848;2022-08-19T12:59:45;7.60;;;4.63;;
41946;SDS011;27638;42.184;24.848;2022-08-19T13:02:11;8.50;;;4.78;;
41946;SDS011;27638;42.184;24.848;2022-08-19T13:04:36;7.47;;;5.13;;
41946;SDS011;27638;42.184;24.848;2022-08-19T13:07:05;9.82;;;4.40;;
41946;SDS011;27638;42.184;24.848;2022-08-19T13:09:32;9.40;;;4.60;;
41946;SDS011;27638;42.184;24.848;2022-08-19T13:11:58;7.03;;;4.68;;
41946;SDS011;27638;42.184;24.848;2022-08-19T13:17:25;7.50;;;4.70;;
41946;SDS011;27638;42.184;24.848;2022-08-19T13:19:51;9.65;;;4.43;;
41946;SDS011;27638;42.184;24.848;2022-08-19T13:22:16;7.65;;;4.47;;
41946;SDS011;27638;42.184;24.848;2022-08-19T13:24:42;8.45;;;5.00;;
41946;SDS011;27638;42.184;24.848;2022-08-19T13:27:08;7.47;;;5.07;;
41946;SDS011;27638;42.184;24.848;2022-08-19T13:29:33;6.95;;;4.35;;
41946;SDS011;27638;42.184;24.848;2022-08-19T13:35:02;9.43;;;4.85;;
41946;SDS011;27638;42.184;24.848;2022-08-19T13:37:28;8.07;;;4.60;;
41946;SDS011;27638;42.184;24.848;2022-08-19T13:40:10;5.55;;;4.85;;
41946;SDS011;27638;42.184;24.848;2022-08-19T13:42:46;5.30;;;4.43;;
41946;SDS011;27638;42.184;24.848;2022-08-19T13:45:14;5.47;;;4.43;;
41946;SDS011;27638;42.184;24.848;2022-08-19T13:47:44;7.60;;;4.75;;
41946;SDS011;27638;42.184;24.848;2022-08-19T13:50:19;8.90;;;4.60;;
41946;SDS011;27638;42.184;24.848;2022-08-19T13:52:47;11.40;;;4.78;;
41946;SDS011;27638;42.184;24.848;2022-08-19T13:55:14;6.60;;;5.10;;
41946;SDS011;27638;42.184;24.848;2022-08-19T13:57:40;7.53;;;4.45;;
41946;SDS011;27638;42.184;24.848;2022-08-19T14:00:11;6.55;;;4.72;;
41946;SDS011;27638;42.184;24.848;2022-08-19T14:02:43;7.53;;;4.30;;
41946;SDS011;27638;42.184;24.848;2022-08-19T14:05:12;6.38;;;4.80;;
41946;SDS011;27638;42.184;24.848;2022-08-19T14:07:39;7.25;;;4.70;;
41946;SDS011;27638;42.184;24.848;2022-08-19T14:10:05;10.55;;;4.57;;
41946;SDS011;27638;42.184;24.848;2022-08-19T14:12:33;7.10;;;4.80;;
41946;SDS011;27638;42.184;24.848;2022-08-19T14:14:59;7.78;;;4.53;;
41946;SDS011;27638;42.184;24.848;2022-08-19T14:17:25;12.68;;;5.20;;
41946;SDS011;27638;42.184;24.848;2022-08-19T14:20:02;9.50;;;4.53;;
41946;SDS011;27638;42.184;24.848;2022-08-19T14:22:32;7.85;;;4.20;;
41946;SDS011;27638;42.184;24.848;2022-08-19T14:24:58;9.23;;;4.40;;
41946;SDS011;27638;42.184;24.848;2022-08-19T14:27:23;7.68;;;4.55;;
41946;SDS011;27638;42.184;24.848;2022-08-19T14:29:50;7.75;;;4.90;;
41946;SDS011;27638;42.184;24.848;2022-08-19T14:32:17;5.75;;;4.18;;
41946;SDS011;27638;42.184;24.848;2022-08-19T14:34:42;5.68;;;4.40;;
41946;SDS011;27638;42.184;24.848;2022-08-19T14:37:10;7.10;;;4.65;;
41946;SDS011;27638;42.184;24.848;2022-08-19T14:39:38;6.15;;;4.47;;
41946;SDS011;27638;42.184;24.848;2022-08-19T14:42:06;7.18;;;4.20;;
41946;SDS011;27638;42.184;24.848;2022-08-19T14:44:33;6.53;;;4.90;;